sensor_id;sensor_type;location;lat;lon;timestamp;P1;P2;P0
78316;PMS7003;67572;50.930;18.276;2023-08-20T00:01:46;34.67;34.00;29.67
78316;PMS7003;67572;50.930;18.276;2023-08-20T00:04:52;43.33;36.67;29.67
78316;PMS7003;67572;50.930;18.276;2023-08-20T00:08:02;38.00;35.67;28.00
78316;PMS7003;67572;50.930;18.276;2023-08-20T00:11:06;39.00;39.00;31.00
78316;PMS7003;67572;50.930;18.276;2023-08-20T00:14:15;33.33;33.33;25.33
78316;PMS7003;67572;50.930;18.276;2023-08-20T00:17:20;35.00;35.00;28.00
78316;PMS7003;67572;50.930;18.276;2023-08-20T00:20:26;32.67;32.67;28.00
78316;PMS7003;67572;50.930;18.276;2023-08-20T00:23:34;39.33;36.33;28.67
78316;PMS7003;67572;50.930;18.276;2023-08-20T00:26:39;37.00;37.00;28.33
78316;PMS7003;67572;50.930;18.276;2023-08-20T00:29:43;31.33;31.33;25.67
78316;PMS7003;67572;50.930;18.276;2023-08-20T00:32:47;37.00;34.33;27.67
78316;PMS7003;67572;50.930;18.276;2023-08-20T00:35:50;27.67;27.33;25.00
78316;PMS7003;67572;50.930;18.276;2023-08-20T00:38:55;31.33;30.67;25.00
78316;PMS7003;67572;50.930;18.276;2023-08-20T00:41:59;35.33;34.00;28.00
78316;PMS7003;67572;50.930;18.276;2023-08-20T00:45:04;34.67;33.00;28.00
78316;PMS7003;67572;50.930;18.276;2023-08-20T00:48:08;39.00;39.00;28.00
78316;PMS7003;67572;50.930;18.276;2023-08-20T00:51:14;35.00;32.67;28.00
78316;PMS7003;67572;50.930;18.276;2023-08-20T00:54:21;37.33;36.00;28.00
78316;PMS7003;67572;50.930;18.276;2023-08-20T00:57:26;33.67;33.67;28.00
78316;PMS7003;67572;50.930;18.276;2023-08-20T01:00:31;39.00;37.67;28.33
78316;PMS7003;67572;50.930;18.276;2023-08-20T01:03:34;38.33;37.67;27.67
78316;PMS7003;67572;50.930;18.276;2023-08-20T01:06:40;31.67;30.33;25.67
78316;PMS7003;67572;50.930;18.276;2023-08-20T01:09:57;34.33;34.33;29.33
78316;PMS7003;67572;50.930;18.276;2023-08-20T01:13:07;35.33;35.33;27.67
78316;PMS7003;67572;50.930;18.276;2023-08-20T01:16:11;30.67;28.67;26.00
78316;PMS7003;67572;50.930;18.276;2023-08-20T01:19:16;33.33;32.00;24.33
78316;PMS7003;67572;50.930;18.276;2023-08-20T01:22:29;34.67;34.00;28.00
78316;PMS7003;67572;50.930;18.276;2023-08-20T01:26:01;31.00;30.00;26.00
78316;PMS7003;67572;50.930;18.276;2023-08-20T01:29:20;34.33;33.33;28.67
78316;PMS7003;67572;50.930;18.276;2023-08-20T01:32:24;38.67;37.67;30.33
78316;PMS7003;67572;50.930;18.276;2023-08-20T01:35:28;38.00;37.33;31.33
78316;PMS7003;67572;50.930;18.276;2023-08-20T01:38:37;36.00;31.67;25.33
78316;PMS7003;67572;50.930;18.276;2023-08-20T01:41:41;38.67;36.00;28.00
78316;PMS7003;67572;50.930;18.276;2023-08-20T01:44:46;39.33;37.67;29.67
78316;PMS7003;67572;50.930;18.276;2023-08-20T01:47:50;39.67;36.00;27.33
78316;PMS7003;67572;50.930;18.276;2023-08-20T01:50:53;37.67;37.67;30.67
78316;PMS7003;67572;50.930;18.276;2023-08-20T01:53:57;37.00;37.00;28.67
78316;PMS7003;67572;50.930;18.276;2023-08-20T01:57:01;43.33;40.33;30.67
78316;PMS7003;67572;50.930;18.276;2023-08-20T02:00:06;38.33;38.33;30.00
78316;PMS7003;67572;50.930;18.276;2023-08-20T02:03:16;39.00;37.00;29.00
78316;PMS7003;67572;50.930;18.276;2023-08-20T02:06:20;36.67;35.00;29.00
78316;PMS7003;67572;50.930;18.276;2023-08-20T02:09:23;40.67;40.67;29.00
78316;PMS7003;67572;50.930;18.276;2023-08-20T02:12:27;37.00;33.33;27.00
78316;PMS7003;67572;50.930;18.276;2023-08-20T02:15:32;38.00;37.67;30.00
78316;PMS7003;67572;50.930;18.276;2023-08-20T02:18:36;35.67;34.00;26.33
78316;PMS7003;67572;50.930;18.276;2023-08-20T02:21:40;48.67;42.67;32.00
78316;PMS7003;67572;50.930;18.276;2023-08-20T02:24:44;43.33;43.00;31.00
78316;PMS7003;67572;50.930;18.276;2023-08-20T02:27:50;37.67;33.00;27.00
78316;PMS7003;67572;50.930;18.276;2023-08-20T02:30:55;46.33;42.00;28.33
78316;PMS7003;67572;50.930;18.276;2023-08-20T02:33:59;38.33;38.33;29.00
78316;PMS7003;67572;50.930;18.276;2023-08-20T02:37:03;39.33;38.67;29.33
78316;PMS7003;67572;50.930;18.276;2023-08-20T02:40:07;40.67;39.00;30.00
78316;PMS7003;67572;50.930;18.276;2023-08-20T02:43:13;41.67;40.33;28.67
78316;PMS7003;67572;50.930;18.276;2023-08-20T02:46:18;42.00;42.00;30.00
78316;PMS7003;67572;50.930;18.276;2023-08-20T02:49:21;27.33;25.00;23.33
78316;PMS7003;67572;50.930;18.276;2023-08-20T02:52:25;36.33;36.33;29.33
78316;PMS7003;67572;50.930;18.276;2023-08-20T02:55:29;46.00;43.00;33.00
78316;PMS7003;67572;50.930;18.276;2023-08-20T02:58:32;39.00;39.00;30.00
78316;PMS7003;67572;50.930;18.276;2023-08-20T03:01:37;39.67;39.00;29.00
78316;PMS7003;67572;50.930;18.276;2023-08-20T03:04:41;39.67;38.67;29.67
78316;PMS7003;67572;50.930;18.276;2023-08-20T03:07:45;38.00;36.00;28.33
78316;PMS7003;67572;50.930;18.276;2023-08-20T03:10:49;32.33;32.33;28.33
78316;PMS7003;67572;50.930;18.276;2023-08-20T03:13:53;32.67;32.00;26.00
78316;PMS7003;67572;50.930;18.276;2023-08-20T03:16:58;33.33;33.33;27.00
78316;PMS7003;67572;50.930;18.276;2023-08-20T03:20:02;36.33;32.33;28.67
78316;PMS7003;67572;50.930;18.276;2023-08-20T03:23:08;27.67;27.67;23.67
78316;PMS7003;67572;50.930;18.276;2023-08-20T03:26:11;29.00;29.00;23.00
78316;PMS7003;67572;50.930;18.276;2023-08-20T03:29:15;32.33;31.00;23.67
78316;PMS7003;67572;50.930;18.276;2023-08-20T03:32:20;30.00;28.33;25.33
78316;PMS7003;67572;50.930;18.276;2023-08-20T03:35:24;38.00;38.00;29.67
78316;PMS7003;67572;50.930;18.276;2023-08-20T03:38:28;35.67;34.33;26.67
78316;PMS7003;67572;50.930;18.276;2023-08-20T03:41:31;38.67;35.00;29.00
78316;PMS7003;67572;50.930;18.276;2023-08-20T03:44:35;38.67;35.67;31.00
78316;PMS7003;67572;50.930;18.276;2023-08-20T03:47:40;32.00;32.00;29.00
78316;PMS7003;67572;50.930;18.276;2023-08-20T03:50:46;36.33;30.33;24.33
78316;PMS7003;67572;50.930;18.276;2023-08-20T03:53:50;34.00;34.00;27.33
78316;PMS7003;67572;50.930;18.276;2023-08-20T03:56:54;37.00;35.00;26.00
78316;PMS7003;67572;50.930;18.276;2023-08-20T03:59:58;41.33;39.00;29.00
78316;PMS7003;67572;50.930;18.276;2023-08-20T04:03:02;35.00;35.00;28.00
78316;PMS7003;67572;50.930;18.276;2023-08-20T04:06:07;33.67;32.00;26.33
78316;PMS7003;67572;50.930;18.276;2023-08-20T04:09:11;37.67;36.67;29.00
78316;PMS7003;67572;50.930;18.276;2023-08-20T04:12:15;41.33;38.33;30.00
78316;PMS7003;67572;50.930;18.276;2023-08-20T04:15:19;44.00;42.00;32.00
78316;PMS7003;67572;50.930;18.276;2023-08-20T04:18:24;37.67;36.67;29.33
78316;PMS7003;67572;50.930;18.276;2023-08-20T04:21:31;40.67;38.33;29.00
78316;PMS7003;67572;50.930;18.276;2023-08-20T04:24:34;38.00;38.00;29.67
78316;PMS7003;67572;50.930;18.276;2023-08-20T04:27:38;43.67;39.00;29.00
78316;PMS7003;67572;50.930;18.276;2023-08-20T04:30:42;40.67;36.33;29.00
78316;PMS7003;67572;50.930;18.276;2023-08-20T04:33:48;46.67;43.00;32.00
78316;PMS7003;67572;50.930;18.276;2023-08-20T04:36:56;41.00;41.00;32.00
78316;PMS7003;67572;50.930;18.276;2023-08-20T04:40:00;40.67;40.67;30.67
78316;PMS7003;67572;50.930;18.276;2023-08-20T04:43:06;40.00;40.00;32.00
78316;PMS7003;67572;50.930;18.276;2023-08-20T04:46:10;47.67;44.33;31.00
78316;PMS7003;67572;50.930;18.276;2023-08-20T04:49:16;48.00;46.33;33.67
78316;PMS7003;67572;50.930;18.276;2023-08-20T04:52:19;48.67;43.67;33.00
78316;PMS7003;67572;50.930;18.276;2023-08-20T04:55:23;43.67;43.00;32.00
78316;PMS7003;67572;50.930;18.276;2023-08-20T04:58:27;43.67;42.00;31.33
78316;PMS7003;67572;50.930;18.276;2023-08-20T05:01:32;47.33;44.33;33.00
78316;PMS7003;67572;50.930;18.276;2023-08-20T05:04:37;42.33;37.33;30.33
78316;PMS7003;67572;50.930;18.276;2023-08-20T05:07:42;48.67;44.00;32.00
78316;PMS7003;67572;50.930;18.276;2023-08-20T05:10:49;46.00;43.00;33.00
78316;PMS7003;67572;50.930;18.276;2023-08-20T05:13:54;53.00;45.67;33.00
78316;PMS7003;67572;50.930;18.276;2023-08-20T05:16:58;57.33;49.67;35.67
78316;PMS7003;67572;50.930;18.276;2023-08-20T05:20:04;48.00;46.00;34.00
78316;PMS7003;67572;50.930;18.276;2023-08-20T05:23:10;48.33;46.00;33.00
78316;PMS7003;67572;50.930;18.276;2023-08-20T05:26:15;51.00;46.67;34.00
78316;PMS7003;67572;50.930;18.276;2023-08-20T05:29:19;55.33;49.00;34.00
78316;PMS7003;67572;50.930;18.276;2023-08-20T05:32:23;57.67;48.67;37.00
78316;PMS7003;67572;50.930;18.276;2023-08-20T05:35:29;56.33;50.00;35.67
78316;PMS7003;67572;50.930;18.276;2023-08-20T05:38:32;56.67;49.33;34.00
78316;PMS7003;67572;50.930;18.276;2023-08-20T05:41:36;61.00;50.67;36.00
78316;PMS7003;67572;50.930;18.276;2023-08-20T05:44:40;55.67;47.33;34.33
78316;PMS7003;67572;50.930;18.276;2023-08-20T05:47:47;57.67;49.67;37.00
78316;PMS7003;67572;50.930;18.276;2023-08-20T05:50:52;58.67;49.00;33.33
78316;PMS7003;67572;50.930;18.276;2023-08-20T05:53:56;58.00;50.00;36.00
78316;PMS7003;67572;50.930;18.276;2023-08-20T05:57:00;60.67;53.00;37.00
78316;PMS7003;67572;50.930;18.276;2023-08-20T06:00:04;68.33;57.00;39.00
78316;PMS7003;67572;50.930;18.276;2023-08-20T06:03:13;65.33;52.00;38.00
78316;PMS7003;67572;50.930;18.276;2023-08-20T06:06:18;60.67;52.67;37.33
78316;PMS7003;67572;50.930;18.276;2023-08-20T06:09:22;60.67;51.67;37.00
78316;PMS7003;67572;50.930;18.276;2023-08-20T06:12:25;60.33;51.33;37.67
78316;PMS7003;67572;50.930;18.276;2023-08-20T06:15:30;69.00;56.00;38.00
78316;PMS7003;67572;50.930;18.276;2023-08-20T06:18:33;65.67;54.33;38.00
78316;PMS7003;67572;50.930;18.276;2023-08-20T06:21:38;61.00;53.00;37.67
78316;PMS7003;67572;50.930;18.276;2023-08-20T06:24:41;48.67;45.00;31.00
78316;PMS7003;67572;50.930;18.276;2023-08-20T06:27:45;56.33;48.67;36.67
78316;PMS7003;67572;50.930;18.276;2023-08-20T06:30:49;66.00;55.00;37.33
78316;PMS7003;67572;50.930;18.276;2023-08-20T06:33:52;48.00;44.33;32.00
78316;PMS7003;67572;50.930;18.276;2023-08-20T06:36:57;48.67;44.00;33.00
78316;PMS7003;67572;50.930;18.276;2023-08-20T06:40:01;56.33;46.00;35.67
78316;PMS7003;67572;50.930;18.276;2023-08-20T06:43:05;58.00;49.00;34.00
78316;PMS7003;67572;50.930;18.276;2023-08-20T06:46:09;50.00;45.67;33.33
78316;PMS7003;67572;50.930;18.276;2023-08-20T06:49:12;53.75;45.25;33.00
78316;PMS7003;67572;50.930;18.276;2023-08-20T06:52:17;52.25;46.75;32.75
78316;PMS7003;67572;50.930;18.276;2023-08-20T06:55:21;51.25;45.75;33.25
78316;PMS7003;67572;50.930;18.276;2023-08-20T06:58:24;50.25;45.00;33.75
78316;PMS7003;67572;50.930;18.276;2023-08-20T07:01:28;49.25;43.75;32.25
78316;PMS7003;67572;50.930;18.276;2023-08-20T07:04:32;52.75;46.50;33.75
78316;PMS7003;67572;50.930;18.276;2023-08-20T07:07:37;43.20;40.20;30.20
78316;PMS7003;67572;50.930;18.276;2023-08-20T07:10:42;45.75;42.75;31.00
78316;PMS7003;67572;50.930;18.276;2023-08-20T07:13:46;52.75;44.75;31.50
78316;PMS7003;67572;50.930;18.276;2023-08-20T07:16:49;50.00;44.50;32.25
78316;PMS7003;67572;50.930;18.276;2023-08-20T07:19:53;43.40;40.80;30.80
78316;PMS7003;67572;50.930;18.276;2023-08-20T07:23:01;47.20;40.80;30.40
78316;PMS7003;67572;50.930;18.276;2023-08-20T07:26:06;41.40;39.80;28.20
78316;PMS7003;67572;50.930;18.276;2023-08-20T07:29:12;40.60;37.80;28.20
78316;PMS7003;67572;50.930;18.276;2023-08-20T07:32:16;39.20;36.80;28.00
78316;PMS7003;67572;50.930;18.276;2023-08-20T07:35:20;36.40;36.20;28.00
78316;PMS7003;67572;50.930;18.276;2023-08-20T07:38:25;38.60;38.00;28.80
78316;PMS7003;67572;50.930;18.276;2023-08-20T07:41:31;38.20;38.00;28.00
78316;PMS7003;67572;50.930;18.276;2023-08-20T07:44:34;28.60;28.60;24.80
78316;PMS7003;67572;50.930;18.276;2023-08-20T07:47:37;42.20;35.60;26.00
78316;PMS7003;67572;50.930;18.276;2023-08-20T07:50:41;34.80;32.60;25.80
78316;PMS7003;67572;50.930;18.276;2023-08-20T07:53:46;39.00;38.00;28.40
78316;PMS7003;67572;50.930;18.276;2023-08-20T07:56:49;35.00;34.20;28.40
78316;PMS7003;67572;50.930;18.276;2023-08-20T07:59:53;33.40;32.40;24.60
78316;PMS7003;67572;50.930;18.276;2023-08-20T08:02:56;29.20;28.60;24.20
78316;PMS7003;67572;50.930;18.276;2023-08-20T08:05:59;26.60;26.60;24.60
78316;PMS7003;67572;50.930;18.276;2023-08-20T08:09:20;31.60;30.60;24.20
78316;PMS7003;67572;50.930;18.276;2023-08-20T08:12:24;24.20;23.20;19.80
78316;PMS7003;67572;50.930;18.276;2023-08-20T08:15:28;27.60;27.60;22.00
78316;PMS7003;67572;50.930;18.276;2023-08-20T08:18:31;28.60;28.60;23.20
78316;PMS7003;67572;50.930;18.276;2023-08-20T08:21:34;28.60;27.00;23.20
78316;PMS7003;67572;50.930;18.276;2023-08-20T08:24:39;28.00;26.60;22.60
78316;PMS7003;67572;50.930;18.276;2023-08-20T08:27:44;24.80;24.80;23.00
78316;PMS7003;67572;50.930;18.276;2023-08-20T08:31:01;30.00;27.00;24.20
78316;PMS7003;67572;50.930;18.276;2023-08-20T08:34:08;28.40;28.40;24.00
78316;PMS7003;67572;50.930;18.276;2023-08-20T08:37:11;28.00;28.00;23.40
78316;PMS7003;67572;50.930;18.276;2023-08-20T08:40:18;32.80;32.40;22.60
78316;PMS7003;67572;50.930;18.276;2023-08-20T08:43:22;32.40;28.60;23.80
78316;PMS7003;67572;50.930;18.276;2023-08-20T08:46:25;24.80;23.40;20.60
78316;PMS7003;67572;50.930;18.276;2023-08-20T08:49:30;12.60;12.60;11.80
78316;PMS7003;67572;50.930;18.276;2023-08-20T08:52:36;21.80;21.00;18.80
78316;PMS7003;67572;50.930;18.276;2023-08-20T08:55:43;23.40;23.40;18.20
78316;PMS7003;67572;50.930;18.276;2023-08-20T08:58:47;22.60;22.60;19.80
78316;PMS7003;67572;50.930;18.276;2023-08-20T09:01:50;21.60;20.00;16.40
78316;PMS7003;67572;50.930;18.276;2023-08-20T09:04:53;23.40;22.40;19.40
78316;PMS7003;67572;50.930;18.276;2023-08-20T09:07:58;22.40;22.40;19.80
78316;PMS7003;67572;50.930;18.276;2023-08-20T09:11:03;20.00;19.20;17.40
78316;PMS7003;67572;50.930;18.276;2023-08-20T09:14:06;21.00;21.00;19.00
78316;PMS7003;67572;50.930;18.276;2023-08-20T09:17:09;23.20;23.20;19.00
78316;PMS7003;67572;50.930;18.276;2023-08-20T09:20:14;17.00;17.00;15.20
78316;PMS7003;67572;50.930;18.276;2023-08-20T09:23:18;18.60;18.60;17.20
78316;PMS7003;67572;50.930;18.276;2023-08-20T09:26:23;14.20;13.80;13.80
78316;PMS7003;67572;50.930;18.276;2023-08-20T09:29:26;18.20;18.20;17.40
78316;PMS7003;67572;50.930;18.276;2023-08-20T09:32:30;21.40;18.40;15.20
78316;PMS7003;67572;50.930;18.276;2023-08-20T09:35:33;17.40;17.40;14.20
78316;PMS7003;67572;50.930;18.276;2023-08-20T09:38:37;19.60;18.80;15.20
78316;PMS7003;67572;50.930;18.276;2023-08-20T09:41:45;14.80;14.80;14.40
78316;PMS7003;67572;50.930;18.276;2023-08-20T09:44:51;19.20;19.20;15.60
78316;PMS7003;67572;50.930;18.276;2023-08-20T09:47:57;19.60;18.80;17.60
78316;PMS7003;67572;50.930;18.276;2023-08-20T09:51:04;19.60;19.60;18.00
78316;PMS7003;67572;50.930;18.276;2023-08-20T09:54:13;19.60;19.60;17.40
78316;PMS7003;67572;50.930;18.276;2023-08-20T09:57:26;21.60;21.60;18.80
78316;PMS7003;67572;50.930;18.276;2023-08-20T10:00:34;19.60;19.60;17.20
78316;PMS7003;67572;50.930;18.276;2023-08-20T10:03:38;19.00;19.00;18.20
78316;PMS7003;67572;50.930;18.276;2023-08-20T10:06:41;21.60;21.40;19.00
78316;PMS7003;67572;50.930;18.276;2023-08-20T10:09:46;18.00;18.00;15.40
78316;PMS7003;67572;50.930;18.276;2023-08-20T10:12:54;16.40;16.00;14.80
78316;PMS7003;67572;50.930;18.276;2023-08-20T10:15:58;23.20;22.20;20.20
78316;PMS7003;67572;50.930;18.276;2023-08-20T10:19:03;21.20;21.20;18.20
78316;PMS7003;67572;50.930;18.276;2023-08-20T10:22:08;16.20;16.20;15.80
78316;PMS7003;67572;50.930;18.276;2023-08-20T10:25:21;14.20;14.20;14.00
78316;PMS7003;67572;50.930;18.276;2023-08-20T10:28:27;16.00;14.80;13.80
78316;PMS7003;67572;50.930;18.276;2023-08-20T10:31:32;19.80;17.00;15.80
78316;PMS7003;67572;50.930;18.276;2023-08-20T10:34:37;20.40;18.20;16.00
78316;PMS7003;67572;50.930;18.276;2023-08-20T10:41:07;17.20;17.20;14.20
78316;PMS7003;67572;50.930;18.276;2023-08-20T10:44:13;18.20;18.20;17.00
78316;PMS7003;67572;50.930;18.276;2023-08-20T10:47:17;20.00;17.40;15.80
78316;PMS7003;67572;50.930;18.276;2023-08-20T10:50:23;17.40;17.40;15.40
78316;PMS7003;67572;50.930;18.276;2023-08-20T10:53:35;18.40;18.40;16.00
78316;PMS7003;67572;50.930;18.276;2023-08-20T10:56:39;18.80;17.80;15.00
78316;PMS7003;67572;50.930;18.276;2023-08-20T10:59:50;14.80;14.80;14.20
78316;PMS7003;67572;50.930;18.276;2023-08-20T11:02:59;16.20;16.20;15.00
78316;PMS7003;67572;50.930;18.276;2023-08-20T11:06:04;21.20;18.00;17.20
78316;PMS7003;67572;50.930;18.276;2023-08-20T11:09:09;19.60;19.40;16.60
78316;PMS7003;67572;50.930;18.276;2023-08-20T11:12:14;14.80;14.80;14.40
78316;PMS7003;67572;50.930;18.276;2023-08-20T11:15:21;16.00;16.00;15.60
78316;PMS7003;67572;50.930;18.276;2023-08-20T11:18:24;14.40;12.40;11.60
78316;PMS7003;67572;50.930;18.276;2023-08-20T11:21:28;17.20;17.20;13.80
78316;PMS7003;67572;50.930;18.276;2023-08-20T11:24:31;15.40;15.40;13.20
78316;PMS7003;67572;50.930;18.276;2023-08-20T11:27:35;14.20;14.20;12.40
78316;PMS7003;67572;50.930;18.276;2023-08-20T11:30:40;15.80;15.80;13.20
78316;PMS7003;67572;50.930;18.276;2023-08-20T11:33:43;17.20;17.20;16.20
78316;PMS7003;67572;50.930;18.276;2023-08-20T11:36:47;15.40;15.20;12.20
78316;PMS7003;67572;50.930;18.276;2023-08-20T11:39:53;14.60;14.60;13.00
78316;PMS7003;67572;50.930;18.276;2023-08-20T11:42:56;18.20;18.20;15.40
78316;PMS7003;67572;50.930;18.276;2023-08-20T11:46:01;16.40;16.40;14.00
78316;PMS7003;67572;50.930;18.276;2023-08-20T11:49:05;16.20;14.80;14.00
78316;PMS7003;67572;50.930;18.276;2023-08-20T11:52:10;14.00;14.00;12.60
78316;PMS7003;67572;50.930;18.276;2023-08-20T11:55:15;13.80;13.80;12.40
78316;PMS7003;67572;50.930;18.276;2023-08-20T11:58:28;13.20;13.20;12.60
78316;PMS7003;67572;50.930;18.276;2023-08-20T12:01:32;16.00;16.00;14.20
78316;PMS7003;67572;50.930;18.276;2023-08-20T12:04:36;16.80;16.80;14.00
78316;PMS7003;67572;50.930;18.276;2023-08-20T12:07:42;14.20;14.20;12.80
78316;PMS7003;67572;50.930;18.276;2023-08-20T12:10:45;14.00;14.00;13.00
78316;PMS7003;67572;50.930;18.276;2023-08-20T12:13:49;9.00;9.00;7.20
78316;PMS7003;67572;50.930;18.276;2023-08-20T12:16:54;15.40;15.40;13.00
78316;PMS7003;67572;50.930;18.276;2023-08-20T12:19:58;15.80;15.80;13.40
78316;PMS7003;67572;50.930;18.276;2023-08-20T12:23:02;10.80;10.80;10.80
78316;PMS7003;67572;50.930;18.276;2023-08-20T12:26:07;17.00;17.00;13.00
78316;PMS7003;67572;50.930;18.276;2023-08-20T12:29:11;15.40;15.40;14.00
78316;PMS7003;67572;50.930;18.276;2023-08-20T12:32:16;10.20;10.20;8.20
78316;PMS7003;67572;50.930;18.276;2023-08-20T12:35:20;12.80;12.80;11.80
78316;PMS7003;67572;50.930;18.276;2023-08-20T12:38:23;12.20;12.20;10.60
78316;PMS7003;67572;50.930;18.276;2023-08-20T12:41:26;14.60;14.60;13.20
78316;PMS7003;67572;50.930;18.276;2023-08-20T12:44:30;14.80;14.80;12.40
78316;PMS7003;67572;50.930;18.276;2023-08-20T12:47:35;12.40;12.40;11.40
78316;PMS7003;67572;50.930;18.276;2023-08-20T12:50:39;12.80;12.80;11.60
78316;PMS7003;67572;50.930;18.276;2023-08-20T12:53:43;14.60;14.60;12.80
78316;PMS7003;67572;50.930;18.276;2023-08-20T12:56:46;12.60;12.60;11.60
78316;PMS7003;67572;50.930;18.276;2023-08-20T12:59:50;14.00;14.00;13.20
78316;PMS7003;67572;50.930;18.276;2023-08-20T13:02:55;15.40;15.40;13.20
78316;PMS7003;67572;50.930;18.276;2023-08-20T13:05:59;14.60;14.60;13.00
78316;PMS7003;67572;50.930;18.276;2023-08-20T13:09:03;7.40;7.40;7.00
78316;PMS7003;67572;50.930;18.276;2023-08-20T13:12:08;13.00;13.00;11.80
78316;PMS7003;67572;50.930;18.276;2023-08-20T13:15:14;12.20;12.20;11.80
78316;PMS7003;67572;50.930;18.276;2023-08-20T13:18:21;12.20;12.20;11.60
78316;PMS7003;67572;50.930;18.276;2023-08-20T13:21:27;12.20;12.20;11.80
78316;PMS7003;67572;50.930;18.276;2023-08-20T13:24:30;13.20;12.80;12.00
78316;PMS7003;67572;50.930;18.276;2023-08-20T13:27:34;14.40;13.80;11.80
78316;PMS7003;67572;50.930;18.276;2023-08-20T13:30:40;12.00;12.00;11.00
78316;PMS7003;67572;50.930;18.276;2023-08-20T13:33:48;15.60;15.60;13.60
78316;PMS7003;67572;50.930;18.276;2023-08-20T13:36:52;7.40;7.40;7.00
78316;PMS7003;67572;50.930;18.276;2023-08-20T13:39:56;8.00;8.00;7.60
78316;PMS7003;67572;50.930;18.276;2023-08-20T13:42:59;11.00;10.00;9.00
78316;PMS7003;67572;50.930;18.276;2023-08-20T13:46:03;12.40;12.40;11.00
78316;PMS7003;67572;50.930;18.276;2023-08-20T13:49:08;15.00;15.00;13.00
78316;PMS7003;67572;50.930;18.276;2023-08-20T13:52:11;12.00;12.00;11.00
78316;PMS7003;67572;50.930;18.276;2023-08-20T13:55:15;8.00;8.00;7.60
78316;PMS7003;67572;50.930;18.276;2023-08-20T13:58:18;11.20;8.40;8.40
78316;PMS7003;67572;50.930;18.276;2023-08-20T14:01:22;11.80;11.80;11.60
78316;PMS7003;67572;50.930;18.276;2023-08-20T14:04:27;13.60;13.40;11.80
78316;PMS7003;67572;50.930;18.276;2023-08-20T14:07:30;9.60;9.60;9.00
78316;PMS7003;67572;50.930;18.276;2023-08-20T14:10:34;12.00;12.00;10.00
78316;PMS7003;67572;50.930;18.276;2023-08-20T14:13:50;8.20;7.00;6.80
78316;PMS7003;67572;50.930;18.276;2023-08-20T14:16:54;10.00;10.00;8.20
78316;PMS7003;67572;50.930;18.276;2023-08-20T14:19:59;12.80;12.80;11.60
78316;PMS7003;67572;50.930;18.276;2023-08-20T14:23:02;9.80;9.80;9.60
78316;PMS7003;67572;50.930;18.276;2023-08-20T14:26:06;14.80;14.80;12.80
78316;PMS7003;67572;50.930;18.276;2023-08-20T14:29:09;11.60;11.60;10.80
78316;PMS7003;67572;50.930;18.276;2023-08-20T14:32:13;8.40;8.40;8.20
78316;PMS7003;67572;50.930;18.276;2023-08-20T14:35:18;14.60;14.60;14.20
78316;PMS7003;67572;50.930;18.276;2023-08-20T14:38:21;8.40;8.40;8.00
78316;PMS7003;67572;50.930;18.276;2023-08-20T14:41:25;12.60;12.60;11.00
78316;PMS7003;67572;50.930;18.276;2023-08-20T14:44:29;14.80;14.00;12.00
78316;PMS7003;67572;50.930;18.276;2023-08-20T14:47:32;13.60;13.60;11.60
78316;PMS7003;67572;50.930;18.276;2023-08-20T14:50:37;14.20;14.20;13.00
78316;PMS7003;67572;50.930;18.276;2023-08-20T14:53:40;13.60;13.60;12.80
78316;PMS7003;67572;50.930;18.276;2023-08-20T14:56:43;16.20;15.20;13.60
78316;PMS7003;67572;50.930;18.276;2023-08-20T14:59:47;8.60;8.60;8.60
78316;PMS7003;67572;50.930;18.276;2023-08-20T15:02:50;12.00;12.00;11.60
78316;PMS7003;67572;50.930;18.276;2023-08-20T15:05:55;13.20;13.00;12.60
78316;PMS7003;67572;50.930;18.276;2023-08-20T15:09:00;13.20;13.20;12.00
78316;PMS7003;67572;50.930;18.276;2023-08-20T15:12:04;12.00;12.00;11.00
78316;PMS7003;67572;50.930;18.276;2023-08-20T15:15:08;17.40;17.40;14.20
78316;PMS7003;67572;50.930;18.276;2023-08-20T15:18:12;17.60;17.60;13.80
78316;PMS7003;67572;50.930;18.276;2023-08-20T15:21:17;14.00;14.00;13.00
78316;PMS7003;67572;50.930;18.276;2023-08-20T15:24:20;12.80;12.80;11.80
78316;PMS7003;67572;50.930;18.276;2023-08-20T15:27:24;13.00;13.00;11.00
78316;PMS7003;67572;50.930;18.276;2023-08-20T15:30:27;14.20;13.40;12.20
78316;PMS7003;67572;50.930;18.276;2023-08-20T15:33:31;14.00;14.00;13.20
78316;PMS7003;67572;50.930;18.276;2023-08-20T15:36:36;16.20;15.40;13.40
78316;PMS7003;67572;50.930;18.276;2023-08-20T15:39:39;12.80;11.60;9.60
78316;PMS7003;67572;50.930;18.276;2023-08-20T15:42:43;8.40;7.80;7.80
78316;PMS7003;67572;50.930;18.276;2023-08-20T15:45:46;15.80;15.80;14.00
78316;PMS7003;67572;50.930;18.276;2023-08-20T15:48:51;13.80;13.60;11.80
78316;PMS7003;67572;50.930;18.276;2023-08-20T15:51:56;11.20;11.20;10.60
78316;PMS7003;67572;50.930;18.276;2023-08-20T15:55:00;13.40;13.40;12.20
78316;PMS7003;67572;50.930;18.276;2023-08-20T15:58:04;12.80;12.80;12.00
78316;PMS7003;67572;50.930;18.276;2023-08-20T16:01:07;15.60;14.40;12.20
78316;PMS7003;67572;50.930;18.276;2023-08-20T16:04:10;13.00;13.00;11.40
78316;PMS7003;67572;50.930;18.276;2023-08-20T16:07:15;13.20;13.20;11.00
78316;PMS7003;67572;50.930;18.276;2023-08-20T16:10:19;13.00;13.00;11.40
78316;PMS7003;67572;50.930;18.276;2023-08-20T16:13:23;11.00;10.60;10.40
78316;PMS7003;67572;50.930;18.276;2023-08-20T16:16:27;8.60;8.60;7.80
78316;PMS7003;67572;50.930;18.276;2023-08-20T16:19:30;12.00;10.80;10.40
78316;PMS7003;67572;50.930;18.276;2023-08-20T16:22:35;11.80;11.80;11.20
78316;PMS7003;67572;50.930;18.276;2023-08-20T16:25:38;11.60;11.60;10.40
78316;PMS7003;67572;50.930;18.276;2023-08-20T16:28:43;11.60;11.60;10.20
78316;PMS7003;67572;50.930;18.276;2023-08-20T16:31:47;12.40;11.00;9.80
78316;PMS7003;67572;50.930;18.276;2023-08-20T16:34:50;12.80;12.00;11.00
78316;PMS7003;67572;50.930;18.276;2023-08-20T16:37:55;12.00;12.00;11.20
78316;PMS7003;67572;50.930;18.276;2023-08-20T16:40:59;11.80;11.80;11.40
78316;PMS7003;67572;50.930;18.276;2023-08-20T16:44:04;13.60;12.60;12.20
78316;PMS7003;67572;50.930;18.276;2023-08-20T16:47:07;12.00;12.00;11.40
78316;PMS7003;67572;50.930;18.276;2023-08-20T16:50:10;12.80;12.80;12.60
78316;PMS7003;67572;50.930;18.276;2023-08-20T16:53:15;13.60;13.60;12.60
78316;PMS7003;67572;50.930;18.276;2023-08-20T16:56:19;12.20;12.20;11.60
78316;PMS7003;67572;50.930;18.276;2023-08-20T16:59:22;12.40;11.40;10.60
78316;PMS7003;67572;50.930;18.276;2023-08-20T17:02:25;13.60;13.40;12.20
78316;PMS7003;67572;50.930;18.276;2023-08-20T17:05:29;9.80;8.80;8.80
78316;PMS7003;67572;50.930;18.276;2023-08-20T17:08:33;13.00;13.00;12.60